createdAt,value
2022-10-24T00:00:52.250Z,14.55
2022-10-24T00:03:18.702Z,14.57
2022-10-24T00:05:45.891Z,14.57
2022-10-24T00:08:12.352Z,14.60
2022-10-24T00:10:41.331Z,14.67
2022-10-24T00:13:08.053Z,14.66
2022-10-24T00:15:34.456Z,14.65
2022-10-24T00:18:00.777Z,14.66
2022-10-24T00:20:27.169Z,14.63
2022-10-24T00:22:53.568Z,14.68
2022-10-24T00:25:19.949Z,14.68
2022-10-24T00:27:46.536Z,14.60
2022-10-24T00:30:12.935Z,14.64
2022-10-24T00:32:39.436Z,14.62
2022-10-24T00:35:06.023Z,14.63
2022-10-24T00:37:32.401Z,14.53
2022-10-24T00:39:58.729Z,14.70
2022-10-24T00:42:25.119Z,14.72
2022-10-24T00:44:52.783Z,14.77
2022-10-24T00:47:26.694Z,14.81
2022-10-24T00:50:01.030Z,14.75
2022-10-24T00:52:33.592Z,14.79
2022-10-24T00:55:01.278Z,14.93
2022-10-24T00:57:31.776Z,14.77
2022-10-24T01:00:00.741Z,14.72
2022-10-24T01:02:27.303Z,14.73
2022-10-24T01:04:55.072Z,14.73
2022-10-24T01:07:33.091Z,14.68
2022-10-24T01:10:18.361Z,14.72
2022-10-24T01:13:03.746Z,14.64
2022-10-24T01:15:46.707Z,14.64
2022-10-24T01:18:18.258Z,14.61
2022-10-24T01:20:50.876Z,14.57
2022-10-24T01:23:23.315Z,14.53
2022-10-24T01:26:16.667Z,14.51
2022-10-24T01:28:52.165Z,14.35
2022-10-24T01:31:25.661Z,14.36
2022-10-24T01:33:55.519Z,14.40
2022-10-24T01:36:30.101Z,14.30
2022-10-24T01:39:02.021Z,14.32
2022-10-24T01:41:29.289Z,14.03
2022-10-24T01:44:05.144Z,14.24
2022-10-24T01:46:38.030Z,14.25
2022-10-24T01:49:16.462Z,14.13
2022-10-24T01:51:43.833Z,14.01
2022-10-24T01:54:10.653Z,14.17
2022-10-24T01:56:37.076Z,14.17
2022-10-24T01:59:29.388Z,14.14
2022-10-24T02:02:04.997Z,14.17
2022-10-24T02:04:32.901Z,14.11
2022-10-24T02:07:02.204Z,14.17
2022-10-24T02:09:29.740Z,14.17
2022-10-24T02:11:57.031Z,14.18
2022-10-24T02:14:34.970Z,14.23
2022-10-24T02:17:02.227Z,14.27
2022-10-24T02:19:29.496Z,14.27
2022-10-24T02:22:14.392Z,14.54
2022-10-24T02:25:03.779Z,14.53
2022-10-24T02:27:33.625Z,14.23
2022-10-24T02:30:02.884Z,14.33
2022-10-24T02:32:31.954Z,14.27
2022-10-24T02:35:03.043Z,14.23
2022-10-24T02:37:31.068Z,14.27
2022-10-24T02:39:58.581Z,14.26
2022-10-24T02:42:26.730Z,14.02
2022-10-24T02:44:53.235Z,14.23
2022-10-24T02:47:20.986Z,14.27
2022-10-24T02:49:47.460Z,14.17
2022-10-24T02:52:14.341Z,14.25
2022-10-24T02:54:40.784Z,14.21
2022-10-24T02:57:07.211Z,14.21
2022-10-24T02:59:33.544Z,14.15
2022-10-24T03:01:59.887Z,14.18
2022-10-24T03:04:26.209Z,14.16
2022-10-24T03:06:53.367Z,14.25
2022-10-24T03:09:19.857Z,14.20
2022-10-24T03:11:46.224Z,14.28
2022-10-24T03:14:12.659Z,14.20
2022-10-24T03:16:38.993Z,14.08
2022-10-24T03:19:05.391Z,14.09
2022-10-24T03:21:32.205Z,14.18
2022-10-24T03:23:58.562Z,14.16
2022-10-24T03:26:25.027Z,14.16
2022-10-24T03:28:51.406Z,14.17
2022-10-24T03:31:17.724Z,14.15
2022-10-24T03:33:44.139Z,14.10
2022-10-24T03:36:10.477Z,14.04
2022-10-24T03:38:36.930Z,13.98
2022-10-24T03:41:03.330Z,14.23
2022-10-24T03:43:29.658Z,14.04
2022-10-24T03:45:55.986Z,14.06
2022-10-24T03:48:22.362Z,14.08
2022-10-24T03:50:48.765Z,13.96
2022-10-24T03:53:15.095Z,13.93
2022-10-24T03:55:41.728Z,14.05
2022-10-24T03:58:09.108Z,13.86
2022-10-24T04:00:40.153Z,13.88
2022-10-24T04:03:07.312Z,14.13
2022-10-24T04:05:34.047Z,14.31
2022-10-24T04:08:00.404Z,14.13
2022-10-24T04:10:27.576Z,14.01
2022-10-24T04:12:54.104Z,13.90
2022-10-24T04:15:20.552Z,14.15
2022-10-24T04:17:47.267Z,14.11
2022-10-24T04:20:14.242Z,14.55
2022-10-24T04:22:40.585Z,14.40
2022-10-24T04:25:06.985Z,14.16
2022-10-24T04:27:33.307Z,14.37
2022-10-24T04:29:59.682Z,14.19
2022-10-24T04:32:26.016Z,14.08
2022-10-24T04:34:52.311Z,14.19
2022-10-24T04:37:18.683Z,14.06
2022-10-24T04:39:44.990Z,14.07
2022-10-24T04:42:11.305Z,14.19
2022-10-24T04:44:37.663Z,14.17
2022-10-24T04:47:03.985Z,14.07
2022-10-24T04:49:30.400Z,14.06
2022-10-24T04:51:56.715Z,14.30
2022-10-24T04:54:23.173Z,14.20
2022-10-24T04:56:49.492Z,14.17
2022-10-24T04:59:15.993Z,14.25
2022-10-24T05:01:42.419Z,14.37
2022-10-24T05:04:09.291Z,14.48
2022-10-24T05:06:35.706Z,14.30
2022-10-24T05:09:02.067Z,14.16
2022-10-24T05:11:28.408Z,14.59
2022-10-24T05:13:54.715Z,14.35
2022-10-24T05:16:21.094Z,14.29
2022-10-24T05:18:47.429Z,14.42
2022-10-24T05:21:13.834Z,14.29
2022-10-24T05:23:40.239Z,14.29
2022-10-24T05:26:06.549Z,14.72
2022-10-24T05:28:33.057Z,14.42
2022-10-24T05:30:59.602Z,14.28
2022-10-24T05:33:26.096Z,14.35
2022-10-24T05:35:52.473Z,14.24
2022-10-24T05:38:18.906Z,14.28
2022-10-24T05:40:49.086Z,14.14
2022-10-24T05:43:16.302Z,14.06
2022-10-24T05:45:43.981Z,14.11
2022-10-24T05:48:10.358Z,14.41
2022-10-24T05:50:36.761Z,14.16
2022-10-24T05:53:03.223Z,14.18
2022-10-24T05:55:31.285Z,14.55
2022-10-24T05:57:57.682Z,14.59
2022-10-24T06:00:24.189Z,14.40
2022-10-24T06:02:50.620Z,14.37
2022-10-24T06:05:16.996Z,14.48
2022-10-24T06:07:43.902Z,14.52
2022-10-24T06:10:11.187Z,14.63
2022-10-24T06:12:37.891Z,14.40
2022-10-24T06:15:05.181Z,14.44
2022-10-24T06:17:32.593Z,14.47
2022-10-24T06:19:58.953Z,14.70
2022-10-24T06:22:27.676Z,14.49
2022-10-24T06:24:53.992Z,14.47
2022-10-24T06:27:20.367Z,14.61
2022-10-24T06:29:46.729Z,14.75
2022-10-24T06:32:13.224Z,14.75
2022-10-24T06:34:39.660Z,14.60
2022-10-24T06:37:06.045Z,14.65
2022-10-24T06:39:32.357Z,14.67
2022-10-24T06:41:58.842Z,14.95
2022-10-24T06:44:25.208Z,15.01
2022-10-24T06:46:51.582Z,14.60
2022-10-24T06:49:18.075Z,14.87
2022-10-24T06:51:44.757Z,14.73
2022-10-24T06:54:11.227Z,14.61
2022-10-24T06:56:37.651Z,14.54
2022-10-24T06:59:07.935Z,14.83
2022-10-24T07:01:36.642Z,14.80
2022-10-24T07:04:03.104Z,14.46
2022-10-24T07:06:29.892Z,14.80
2022-10-24T07:08:58.270Z,14.76
2022-10-24T07:11:25.021Z,14.70
2022-10-24T07:13:53.310Z,14.56
2022-10-24T07:16:22.992Z,14.53
2022-10-24T07:18:49.325Z,14.82
2022-10-24T07:21:20.271Z,14.74
2022-10-24T07:23:46.819Z,14.67
2022-10-24T07:26:14.955Z,14.69
2022-10-24T07:28:42.046Z,14.79
2022-10-24T07:31:08.508Z,14.73
2022-10-24T07:33:36.665Z,14.99
2022-10-24T07:36:04.242Z,14.86
2022-10-24T07:38:30.685Z,14.96
2022-10-24T07:40:57.031Z,15.06
2022-10-24T07:43:23.368Z,14.91
2022-10-24T07:45:52.008Z,14.82
2022-10-24T07:48:18.912Z,15.00
2022-10-24T07:50:46.477Z,14.90
2022-10-24T07:53:13.424Z,15.15
2022-10-24T07:55:40.625Z,15.14
2022-10-24T07:58:09.494Z,15.15
2022-10-24T08:00:35.865Z,15.09
2022-10-24T08:03:02.853Z,15.51
2022-10-24T08:05:29.302Z,15.34
2022-10-24T08:08:12.105Z,15.34
2022-10-24T08:10:42.104Z,15.48
2022-10-24T08:13:13.721Z,15.44
2022-10-24T08:15:40.094Z,15.11
2022-10-24T08:18:06.511Z,14.98
2022-10-24T08:20:32.997Z,14.99
2022-10-24T08:22:59.318Z,15.05
2022-10-24T08:25:25.777Z,14.91
2022-10-24T08:27:52.193Z,15.02
2022-10-24T08:30:20.673Z,14.78
2022-10-24T08:32:47.267Z,14.79
2022-10-24T08:35:20.130Z,14.74
2022-10-24T08:37:46.571Z,14.68
2022-10-24T08:40:17.661Z,14.90
2022-10-24T08:42:44.585Z,14.80
2022-10-24T08:45:19.661Z,14.83
2022-10-24T08:47:48.967Z,14.72
2022-10-24T08:50:27.191Z,14.82
2022-10-24T08:53:04.308Z,14.76
2022-10-24T08:55:50.622Z,14.81
2022-10-24T08:58:23.506Z,14.93
2022-10-24T09:00:51.961Z,15.10
2022-10-24T09:03:26.527Z,15.03
2022-10-24T09:06:11.117Z,15.02
2022-10-24T09:08:50.048Z,14.98
2022-10-24T09:11:36.713Z,15.02
2022-10-24T09:14:07.614Z,15.06
2022-10-24T09:16:35.177Z,15.11
2022-10-24T09:19:01.766Z,15.09
2022-10-24T09:21:28.239Z,15.20
2022-10-24T09:23:54.954Z,15.26
2022-10-24T09:26:26.729Z,15.21
2022-10-24T09:28:55.143Z,15.11
2022-10-24T09:31:23.567Z,15.05
2022-10-24T09:33:50.858Z,15.05
2022-10-24T09:36:18.468Z,15.02
2022-10-24T09:38:46.781Z,15.10
2022-10-24T09:41:27.572Z,15.06
2022-10-24T09:43:56.115Z,15.15
2022-10-24T09:46:24.065Z,15.22
2022-10-24T09:49:01.584Z,15.27
2022-10-24T09:51:45.389Z,15.19
2022-10-24T09:54:17.831Z,15.17
2022-10-24T09:56:45.215Z,15.17
2022-10-24T09:59:24.050Z,15.14
2022-10-24T10:01:50.823Z,15.26
2022-10-24T10:04:18.536Z,15.27
2022-10-24T10:06:46.443Z,15.31
2022-10-24T10:09:14.069Z,15.30
2022-10-24T10:11:44.773Z,15.31
2022-10-24T10:14:23.828Z,15.28
2022-10-24T10:17:00.741Z,15.32
2022-10-24T10:19:27.667Z,15.41
2022-10-24T10:21:55.001Z,15.46
2022-10-24T10:24:33.341Z,15.48
2022-10-24T10:26:59.678Z,15.51
2022-10-24T10:29:26.150Z,15.54
2022-10-24T10:31:54.113Z,15.54
2022-10-24T10:34:32.427Z,15.67
2022-10-24T10:37:01.913Z,15.64
2022-10-24T10:39:45.099Z,15.57
2022-10-24T10:42:17.452Z,15.48
2022-10-24T10:44:43.771Z,15.35
2022-10-24T10:47:29.967Z,15.51
2022-10-24T10:49:58.420Z,15.25
2022-10-24T10:52:45.262Z,15.18
2022-10-24T10:55:14.766Z,15.43
2022-10-24T10:58:04.415Z,15.47
2022-10-24T11:00:39.592Z,15.27
2022-10-24T11:03:18.088Z,15.65
2022-10-24T11:05:44.750Z,15.50
2022-10-24T11:08:12.943Z,15.47
2022-10-24T11:10:44.096Z,15.47
2022-10-24T11:13:19.981Z,15.34
2022-10-24T11:15:49.050Z,15.47
2022-10-24T11:18:18.722Z,15.55
2022-10-24T11:20:48.359Z,15.33
2022-10-24T11:23:30.586Z,15.53
2022-10-24T11:25:56.972Z,15.39
2022-10-24T11:28:29.207Z,15.56
2022-10-24T11:31:08.603Z,15.42
2022-10-24T11:33:56.641Z,15.34
2022-10-24T11:36:41.288Z,15.43
2022-10-24T11:39:16.622Z,15.30
2022-10-24T11:41:45.732Z,15.39
2022-10-24T11:44:17.737Z,15.39
2022-10-24T11:46:49.666Z,15.47
2022-10-24T11:49:22.343Z,15.48
2022-10-24T11:51:56.108Z,15.25
2022-10-24T11:54:25.327Z,15.46
2022-10-24T11:56:51.657Z,15.58
2022-10-24T11:59:24.317Z,15.52
2022-10-24T12:02:03.371Z,15.51
2022-10-24T12:04:44.791Z,15.58
2022-10-24T12:07:29.652Z,15.63
2022-10-24T12:10:02.960Z,15.59
2022-10-24T12:12:48.117Z,15.43
2022-10-24T12:15:20.278Z,15.41
2022-10-24T12:17:46.913Z,15.97
2022-10-24T12:20:19.500Z,15.68
2022-10-24T12:22:46.937Z,15.68
2022-10-24T12:25:32.195Z,15.45
2022-10-24T12:28:34.188Z,15.40
2022-10-24T12:31:11.698Z,15.21
2022-10-24T12:33:38.041Z,15.19
2022-10-24T12:36:04.543Z,15.31
2022-10-24T12:38:30.851Z,15.31
2022-10-24T12:40:57.738Z,15.42
2022-10-24T12:43:27.938Z,15.57
2022-10-24T12:45:54.557Z,15.63
2022-10-24T12:48:31.623Z,15.40
2022-10-24T12:50:59.651Z,15.64
2022-10-24T12:53:31.645Z,15.86
2022-10-24T12:55:57.988Z,15.69
2022-10-24T12:58:36.158Z,15.75
2022-10-24T13:01:06.004Z,16.21
2022-10-24T13:03:32.371Z,16.19
2022-10-24T13:06:17.717Z,16.11
2022-10-24T13:09:02.707Z,15.99
2022-10-24T13:11:45.114Z,16.20
2022-10-24T13:14:21.188Z,15.88
2022-10-24T13:16:50.509Z,16.06
2022-10-24T13:19:18.561Z,16.24
2022-10-24T13:21:47.508Z,16.21
2022-10-24T13:24:16.909Z,16.10
2022-10-24T13:26:47.536Z,16.21
2022-10-24T13:29:23.045Z,16.16
2022-10-24T13:32:18.661Z,16.27
2022-10-24T13:34:50.114Z,16.27
2022-10-24T13:37:21.887Z,16.12
2022-10-24T13:39:56.333Z,16.14
2022-10-24T13:42:25.787Z,16.19
2022-10-24T13:44:54.696Z,16.33
2022-10-24T13:47:28.397Z,16.31
2022-10-24T13:50:14.999Z,16.48
2022-10-24T13:52:49.143Z,16.00
2022-10-24T13:55:23.646Z,16.05
2022-10-24T13:57:52.170Z,16.16
2022-10-24T14:00:20.033Z,15.96
2022-10-24T14:02:47.803Z,15.96
2022-10-24T14:05:26.291Z,16.10
2022-10-24T14:07:55.068Z,16.04
2022-10-24T14:10:30.689Z,16.01
2022-10-24T14:12:57.307Z,16.25
2022-10-24T14:15:33.892Z,16.09
2022-10-24T14:18:01.815Z,15.99
2022-10-24T14:20:33.146Z,16.11
2022-10-24T14:23:00.848Z,16.05
2022-10-24T14:25:30.062Z,15.93
2022-10-24T14:27:58.768Z,16.04
2022-10-24T14:30:30.720Z,15.99
2022-10-24T14:33:05.567Z,16.09
2022-10-24T14:35:32.080Z,16.17
2022-10-24T14:37:59.613Z,16.02
2022-10-24T14:40:25.943Z,16.05
2022-10-24T14:42:54.456Z,16.20
2022-10-24T14:45:25.362Z,16.16
2022-10-24T14:47:54.909Z,16.13
2022-10-24T14:50:38.564Z,15.98
2022-10-24T14:53:05.283Z,15.83
2022-10-24T14:55:32.048Z,15.99
2022-10-24T14:57:58.606Z,16.17
2022-10-24T15:00:26.145Z,15.94
2022-10-24T15:02:56.382Z,15.90
2022-10-24T15:05:24.811Z,15.83
2022-10-24T15:08:20.940Z,16.01
2022-10-24T15:10:48.041Z,15.87
2022-10-24T15:13:18.216Z,15.87
2022-10-24T15:15:45.669Z,15.74
2022-10-24T15:18:14.886Z,15.72
2022-10-24T15:20:49.680Z,15.82
2022-10-24T15:23:25.573Z,15.82
2022-10-24T15:26:03.084Z,15.83
2022-10-24T15:28:38.091Z,15.73
2022-10-24T15:31:09.340Z,15.55
2022-10-24T15:33:36.848Z,15.55
2022-10-24T15:36:06.291Z,15.64
2022-10-24T15:38:38.947Z,15.52
2022-10-24T15:41:09.052Z,15.81
2022-10-24T15:43:39.599Z,15.38
2022-10-24T15:46:06.959Z,15.32
2022-10-24T15:48:34.409Z,15.22
2022-10-24T15:51:00.875Z,15.10
2022-10-24T15:53:27.193Z,15.28
2022-10-24T15:55:53.620Z,15.30
2022-10-24T15:58:19.996Z,15.38
2022-10-24T16:00:46.505Z,15.29
2022-10-24T16:03:15.375Z,15.29
2022-10-24T16:05:43.003Z,15.51
2022-10-24T16:08:12.277Z,15.09
2022-10-24T16:10:40.161Z,15.11
2022-10-24T16:13:07.424Z,15.17
2022-10-24T16:15:35.413Z,15.12
2022-10-24T16:18:09.302Z,14.81
2022-10-24T16:20:35.935Z,14.91
2022-10-24T16:23:03.061Z,14.87
2022-10-24T16:25:30.771Z,14.74
2022-10-24T16:27:57.210Z,14.86
2022-10-24T16:30:26.649Z,14.97
2022-10-24T16:32:53.318Z,14.70
2022-10-24T16:35:24.683Z,14.95
2022-10-24T16:37:51.984Z,14.83
2022-10-24T16:40:18.662Z,14.92
2022-10-24T16:42:45.286Z,14.82
2022-10-24T16:45:11.933Z,14.88
2022-10-24T16:47:41.272Z,14.90
2022-10-24T16:50:08.630Z,14.83
2022-10-24T16:52:35.073Z,15.12
2022-10-24T16:55:01.456Z,14.85
2022-10-24T16:57:29.006Z,14.72
2022-10-24T16:59:55.440Z,14.90
2022-10-24T17:02:21.828Z,14.76
2022-10-24T17:04:49.324Z,14.68
2022-10-24T17:07:15.735Z,14.90
2022-10-24T17:09:44.228Z,14.57
2022-10-24T17:12:10.670Z,14.57
2022-10-24T17:14:37.621Z,14.59
2022-10-24T17:17:04.979Z,14.53
2022-10-24T17:19:35.758Z,14.53
2022-10-24T17:22:02.586Z,14.51
2022-10-24T17:24:30.286Z,14.48
2022-10-24T17:26:56.804Z,14.53
2022-10-24T17:29:33.379Z,14.52
2022-10-24T17:32:06.844Z,14.44
2022-10-24T17:34:33.491Z,14.52
2022-10-24T17:37:14.365Z,14.54
2022-10-24T17:39:46.659Z,14.50
2022-10-24T17:42:13.064Z,14.41
2022-10-24T17:44:39.629Z,14.42
2022-10-24T17:47:06.443Z,14.46
2022-10-24T17:49:32.913Z,14.51
2022-10-24T17:51:59.470Z,14.37
2022-10-24T17:54:26.140Z,14.36
2022-10-24T17:56:53.653Z,14.35
2022-10-24T17:59:21.922Z,14.35
2022-10-24T18:01:49.138Z,14.52
2022-10-24T18:04:15.792Z,14.50
2022-10-24T18:06:43.481Z,14.29
2022-10-24T18:09:10.419Z,14.26
2022-10-24T18:11:38.897Z,14.23
2022-10-24T18:14:05.320Z,14.29
2022-10-24T18:16:31.986Z,14.32
2022-10-24T18:18:58.393Z,14.35
2022-10-24T18:21:25.473Z,14.57
2022-10-24T18:23:52.161Z,14.36
2022-10-24T18:26:20.179Z,14.29
2022-10-24T18:28:48.059Z,14.09
2022-10-24T18:31:17.079Z,14.27
2022-10-24T18:33:44.095Z,14.30
2022-10-24T18:36:12.484Z,14.24
2022-10-24T18:38:42.147Z,14.18
2022-10-24T18:41:27.044Z,13.98
2022-10-24T18:43:53.527Z,14.09
2022-10-24T18:46:20.263Z,14.02
2022-10-24T18:48:46.873Z,14.02
2022-10-24T18:51:31.933Z,14.20
2022-10-24T18:54:03.449Z,14.20
2022-10-24T18:56:29.839Z,14.08
2022-10-24T18:59:02.193Z,14.13
2022-10-24T19:01:39.711Z,14.12
2022-10-24T19:04:13.030Z,13.99
2022-10-24T19:06:40.166Z,13.91
2022-10-24T19:09:15.096Z,13.93
2022-10-24T19:11:41.504Z,13.99
2022-10-24T19:14:14.895Z,13.99
2022-10-24T19:16:46.660Z,13.88
2022-10-24T19:19:14.675Z,13.93
2022-10-24T19:21:41.149Z,13.90
2022-10-24T19:24:08.183Z,13.82
2022-10-24T19:26:34.646Z,13.75
2022-10-24T19:29:03.575Z,13.50
2022-10-24T19:31:32.167Z,13.61
2022-10-24T19:33:58.494Z,13.61
2022-10-24T19:36:28.444Z,13.56
2022-10-24T19:38:55.599Z,13.61
2022-10-24T19:41:22.589Z,13.56
2022-10-24T19:43:50.874Z,13.63
2022-10-24T19:46:20.119Z,13.57
2022-10-24T19:48:49.124Z,13.56
2022-10-24T19:51:16.669Z,13.61
2022-10-24T19:53:44.023Z,13.52
2022-10-24T19:56:20.052Z,13.39
2022-10-24T19:58:51.071Z,13.55
2022-10-24T20:01:19.162Z,13.44
2022-10-24T20:03:46.766Z,13.47
2022-10-24T20:06:13.655Z,13.41
2022-10-24T20:08:40.153Z,13.35
2022-10-24T20:11:08.759Z,12.99
2022-10-24T20:13:35.289Z,13.28
2022-10-24T20:16:03.729Z,13.32
2022-10-24T20:18:32.281Z,13.10
2022-10-24T20:20:59.044Z,13.33
2022-10-24T20:23:25.949Z,13.25
2022-10-24T20:25:57.941Z,13.19
2022-10-24T20:28:24.256Z,12.91
2022-10-24T20:30:50.650Z,13.00
2022-10-24T20:33:16.980Z,13.12
2022-10-24T20:35:43.972Z,13.23
2022-10-24T20:38:10.435Z,13.12
2022-10-24T20:40:37.131Z,13.15
2022-10-24T20:43:04.688Z,13.08
2022-10-24T20:45:34.109Z,13.03
2022-10-24T20:48:01.101Z,13.00
2022-10-24T20:50:27.564Z,13.03
2022-10-24T20:52:54.154Z,13.11
2022-10-24T20:55:32.051Z,13.17
2022-10-24T20:58:13.334Z,13.06
2022-10-24T21:03:14.224Z,13.07
2022-10-24T21:05:40.583Z,13.00
2022-10-24T21:08:06.946Z,13.12
2022-10-24T21:10:34.429Z,13.11
2022-10-24T21:13:00.863Z,13.18
2022-10-24T21:15:27.276Z,13.23
2022-10-24T21:17:53.694Z,13.12
2022-10-24T21:20:20.020Z,13.08
2022-10-24T21:22:48.476Z,13.10
2022-10-24T21:25:14.867Z,13.25
2022-10-24T21:27:41.276Z,13.27
2022-10-24T21:30:12.176Z,13.21
2022-10-24T21:32:40.697Z,13.22
2022-10-24T21:35:09.142Z,13.17
2022-10-24T21:37:35.833Z,13.22
2022-10-24T21:40:06.553Z,13.16
2022-10-24T21:42:36.006Z,13.07
2022-10-24T21:45:02.336Z,13.20
2022-10-24T21:47:28.644Z,13.25
2022-10-24T21:49:54.977Z,13.28
2022-10-24T21:52:21.322Z,13.26
2022-10-24T21:54:47.623Z,13.31
2022-10-24T21:57:13.946Z,13.31
2022-10-24T21:59:40.266Z,13.16
2022-10-24T22:02:06.847Z,13.32
2022-10-24T22:04:33.276Z,13.41
2022-10-24T22:06:59.799Z,13.41
2022-10-24T22:09:26.320Z,13.44
2022-10-24T22:11:55.292Z,13.41
2022-10-24T22:14:21.630Z,13.42
2022-10-24T22:16:47.998Z,13.37
2022-10-24T22:19:14.513Z,13.41
2022-10-24T22:21:42.520Z,13.36
2022-10-24T22:24:10.432Z,13.27
2022-10-24T22:26:41.117Z,13.06
2022-10-24T22:29:08.246Z,13.11
2022-10-24T22:31:35.113Z,13.11
2022-10-24T22:34:01.497Z,13.17
2022-10-24T22:36:39.807Z,13.17
2022-10-24T22:39:11.669Z,13.18
2022-10-24T22:41:38.147Z,13.04
2022-10-24T22:44:04.670Z,13.08
2022-10-24T22:46:32.167Z,13.08
2022-10-24T22:49:04.322Z,13.17
2022-10-24T22:51:31.152Z,13.13
2022-10-24T22:53:57.699Z,13.17
2022-10-24T22:56:33.226Z,13.13
2022-10-24T22:59:00.969Z,12.95
2022-10-24T23:01:48.401Z,13.23
2022-10-24T23:04:20.620Z,12.95
2022-10-24T23:06:51.525Z,12.95
2022-10-24T23:09:18.046Z,12.92
2022-10-24T23:11:44.604Z,12.78
2022-10-24T23:14:11.372Z,12.78
2022-10-24T23:16:44.007Z,12.62
2022-10-24T23:19:21.084Z,12.84
2022-10-24T23:21:55.110Z,12.85
2022-10-24T23:24:21.643Z,12.90
2022-10-24T23:27:00.286Z,12.93
2022-10-24T23:29:26.599Z,12.97
2022-10-24T23:31:53.120Z,13.06
2022-10-24T23:34:19.651Z,13.10
2022-10-24T23:36:46.110Z,13.12
2022-10-24T23:39:13.080Z,13.15
2022-10-24T23:41:39.693Z,13.13
2022-10-24T23:44:11.452Z,13.04
2022-10-24T23:46:40.897Z,12.56
2022-10-24T23:49:42.830Z,12.77
2022-10-24T23:52:17.525Z,12.67
2022-10-24T23:54:44.077Z,12.81
2022-10-24T23:57:17.015Z,12.81
2022-10-24T23:59:43.382Z,12.83
